This is the latest recevied weather packets stored in our database for station/object ES0THZ-9. If no packets are shown the sender has not sent any weather packets the latest 10 day(s).
| Time | Temp. | Humidity | Pressure | Rain* | Wind** | Luminosity | Snow |
|---|---|---|---|---|---|---|---|
| 1777555569 | 12.22° C | 72% | 1023.7 hPa | 0 mm | - | - | - |
| 1777552560 | 12.22° C | 71% | 1023.8 hPa | 0 mm | - | - | - |
| 1777551375 | 12.22° C | 72% | 1023.9 hPa | 0 mm | - | - | - |
| 1777545335 | 10.56° C | 78% | 1023.7 hPa | 0 mm | - | - | - |
| 1777542325 | 10.56° C | 76% | 1023.9 hPa | 0 mm | - | - | - |
| 1777540519 | 10° C | 76% | 1023.9 hPa | 0 mm | - | - | - |
| 1777538713 | 9.44° C | 76% | 1024 hPa | 0 mm | - | - | - |
| 1777538111 | 9.44° C | 75% | 1024 hPa | 0 mm | - | - | - |
| 1777534800 | 8.33° C | 75% | 1024.1 hPa | 0 mm | - | - | - |
| 1777533616 | 7.22° C | 79% | 1024.2 hPa | 0 mm | - | - | - |
| 1777532392 | 6.67° C | 81% | 1024.1 hPa | 0 mm | - | - | - |
| 1777524566 | 5° C | 83% | 1024 hPa | 0 mm | - | - | - |
| 1777523363 | 5° C | 83% | 1024.3 hPa | 0 mm | - | - | - |
| 1777520352 | 4.44° C | 82% | 1024.2 hPa | 0 mm | - | - | - |
| 1777509517 | 5° C | 80% | 1025.2 hPa | 0 mm | - | - | - |
| 1777507711 | 4.44° C | 78% | 1025.4 hPa | 0 mm | - | - | - |
| 1777505924 | 4.44° C | 76% | 1025.6 hPa | 0 mm | - | - | - |
| 1777504721 | 4.44° C | 74% | 1026.1 hPa | 0 mm | - | - | - |
| 1777501088 | 4.44° C | 71% | 1026.2 hPa | 0 mm | - | - | - |
| 1777499884 | 4.44° C | 70% | 1026.2 hPa | 0 mm | - | - | - |
| 1777495069 | 3.33° C | 74% | 1026.5 hPa | 0 mm | - | - | - |
| 1777492680 | 3.33° C | 74% | 1026.7 hPa | 0 mm | - | - | - |
| 1777487243 | 3.89° C | 65% | 1026.8 hPa | 0 mm | - | - | - |
| 1777485437 | 5° C | 56% | 1026.7 hPa | 0 mm | - | - | - |
| 1777484253 | 5.56° C | 51% | 1026.8 hPa | 0 mm | - | - | - |
* Rain latest hour (hover to see other rain measurements)
** Current wind speed in m/s (hover to see current wind gust speed)